sensor_id;sensor_type;location;lat;lon;timestamp;temperature;humidity
13310;DHT22;6723;48.256;16.402;2022-10-31T00:01:38;12.10;99.90
13310;DHT22;6723;48.256;16.402;2022-10-31T00:04:05;12.10;99.90
13310;DHT22;6723;48.256;16.402;2022-10-31T00:06:31;12.10;99.90
13310;DHT22;6723;48.256;16.402;2022-10-31T00:08:59;12.10;99.90
13310;DHT22;6723;48.256;16.402;2022-10-31T00:11:26;12.10;99.90
13310;DHT22;6723;48.256;16.402;2022-10-31T00:13:52;12.00;99.90
13310;DHT22;6723;48.256;16.402;2022-10-31T00:16:21;12.00;99.90
13310;DHT22;6723;48.256;16.402;2022-10-31T00:18:51;12.00;99.90
13310;DHT22;6723;48.256;16.402;2022-10-31T00:21:18;12.00;99.90
13310;DHT22;6723;48.256;16.402;2022-10-31T00:23:47;12.00;99.90
13310;DHT22;6723;48.256;16.402;2022-10-31T00:26:13;12.00;99.90
13310;DHT22;6723;48.256;16.402;2022-10-31T00:28:39;12.00;99.90
13310;DHT22;6723;48.256;16.402;2022-10-31T00:31:07;12.00;99.90
13310;DHT22;6723;48.256;16.402;2022-10-31T00:33:34;12.00;99.90
13310;DHT22;6723;48.256;16.402;2022-10-31T00:36:00;12.10;99.90
13310;DHT22;6723;48.256;16.402;2022-10-31T00:38:26;12.10;99.90
13310;DHT22;6723;48.256;16.402;2022-10-31T00:40:52;12.00;99.90
13310;DHT22;6723;48.256;16.402;2022-10-31T00:43:18;12.00;99.90
13310;DHT22;6723;48.256;16.402;2022-10-31T00:45:44;12.00;99.90
13310;DHT22;6723;48.256;16.402;2022-10-31T00:48:10;12.00;99.90
13310;DHT22;6723;48.256;16.402;2022-10-31T00:50:36;12.10;99.90
13310;DHT22;6723;48.256;16.402;2022-10-31T00:53:03;12.00;99.90
13310;DHT22;6723;48.256;16.402;2022-10-31T00:55:28;12.00;99.90
13310;DHT22;6723;48.256;16.402;2022-10-31T00:57:55;12.00;99.90
13310;DHT22;6723;48.256;16.402;2022-10-31T01:00:21;12.00;99.90
13310;DHT22;6723;48.256;16.402;2022-10-31T01:02:47;12.00;99.90
13310;DHT22;6723;48.256;16.402;2022-10-31T01:05:12;12.00;99.90
13310;DHT22;6723;48.256;16.402;2022-10-31T01:07:40;11.90;99.90
13310;DHT22;6723;48.256;16.402;2022-10-31T01:10:06;11.90;99.90
13310;DHT22;6723;48.256;16.402;2022-10-31T01:12:44;11.90;99.90
13310;DHT22;6723;48.256;16.402;2022-10-31T01:15:12;11.90;99.90
13310;DHT22;6723;48.256;16.402;2022-10-31T01:17:39;11.90;99.90
13310;DHT22;6723;48.256;16.402;2022-10-31T01:20:07;12.00;99.90
13310;DHT22;6723;48.256;16.402;2022-10-31T01:22:34;11.90;99.90
13310;DHT22;6723;48.256;16.402;2022-10-31T01:25:00;11.90;99.90
13310;DHT22;6723;48.256;16.402;2022-10-31T01:27:26;12.00;99.90
13310;DHT22;6723;48.256;16.402;2022-10-31T01:29:52;11.90;99.90
13310;DHT22;6723;48.256;16.402;2022-10-31T01:32:18;11.90;99.90
13310;DHT22;6723;48.256;16.402;2022-10-31T01:34:43;12.00;99.90
13310;DHT22;6723;48.256;16.402;2022-10-31T01:37:09;12.00;99.90
13310;DHT22;6723;48.256;16.402;2022-10-31T01:39:35;12.00;99.90
13310;DHT22;6723;48.256;16.402;2022-10-31T01:42:01;12.00;99.90
13310;DHT22;6723;48.256;16.402;2022-10-31T01:47:10;12.10;99.90
13310;DHT22;6723;48.256;16.402;2022-10-31T01:49:47;12.10;99.90
13310;DHT22;6723;48.256;16.402;2022-10-31T01:52:32;12.10;99.90
13310;DHT22;6723;48.256;16.402;2022-10-31T01:54:59;12.10;99.90
13310;DHT22;6723;48.256;16.402;2022-10-31T01:57:27;12.10;99.90
13310;DHT22;6723;48.256;16.402;2022-10-31T01:59:58;12.10;99.90
13310;DHT22;6723;48.256;16.402;2022-10-31T02:02:27;12.10;99.90
13310;DHT22;6723;48.256;16.402;2022-10-31T02:04:54;12.10;99.90
13310;DHT22;6723;48.256;16.402;2022-10-31T02:07:27;12.00;99.90
13310;DHT22;6723;48.256;16.402;2022-10-31T02:09:57;12.10;99.90
13310;DHT22;6723;48.256;16.402;2022-10-31T02:12:23;12.00;99.90
13310;DHT22;6723;48.256;16.402;2022-10-31T02:14:50;12.00;99.90
13310;DHT22;6723;48.256;16.402;2022-10-31T02:17:16;12.10;99.90
13310;DHT22;6723;48.256;16.402;2022-10-31T02:20:12;12.00;99.90
13310;DHT22;6723;48.256;16.402;2022-10-31T02:26:12;12.00;99.90
13310;DHT22;6723;48.256;16.402;2022-10-31T02:29:05;12.00;99.90
13310;DHT22;6723;48.256;16.402;2022-10-31T02:34:36;12.00;99.90
13310;DHT22;6723;48.256;16.402;2022-10-31T02:39:59;12.00;99.90
13310;DHT22;6723;48.256;16.402;2022-10-31T02:42:33;12.10;99.90
13310;DHT22;6723;48.256;16.402;2022-10-31T02:45:14;12.10;99.90
13310;DHT22;6723;48.256;16.402;2022-10-31T02:47:44;12.10;99.90
13310;DHT22;6723;48.256;16.402;2022-10-31T02:50:31;12.10;99.90
13310;DHT22;6723;48.256;16.402;2022-10-31T02:52:58;12.10;99.90
13310;DHT22;6723;48.256;16.402;2022-10-31T02:58:07;12.10;99.90
13310;DHT22;6723;48.256;16.402;2022-10-31T03:03:29;12.10;99.90
13310;DHT22;6723;48.256;16.402;2022-10-31T03:06:00;12.10;99.90
13310;DHT22;6723;48.256;16.402;2022-10-31T03:08:50;12.10;99.90
13310;DHT22;6723;48.256;16.402;2022-10-31T03:11:18;12.10;99.90
13310;DHT22;6723;48.256;16.402;2022-10-31T03:13:51;12.10;99.90
13310;DHT22;6723;48.256;16.402;2022-10-31T03:21:39;12.20;99.90
13310;DHT22;6723;48.256;16.402;2022-10-31T03:24:10;12.20;99.90
13310;DHT22;6723;48.256;16.402;2022-10-31T03:26:40;12.20;99.90
13310;DHT22;6723;48.256;16.402;2022-10-31T03:29:09;12.20;99.90
13310;DHT22;6723;48.256;16.402;2022-10-31T03:31:41;12.20;99.90
13310;DHT22;6723;48.256;16.402;2022-10-31T03:34:09;12.20;99.90
13310;DHT22;6723;48.256;16.402;2022-10-31T03:36:39;12.20;99.90
13310;DHT22;6723;48.256;16.402;2022-10-31T03:39:08;12.20;99.90
13310;DHT22;6723;48.256;16.402;2022-10-31T03:41:41;12.10;99.90
13310;DHT22;6723;48.256;16.402;2022-10-31T03:44:15;12.10;99.90
13310;DHT22;6723;48.256;16.402;2022-10-31T03:46:42;12.10;99.90
13310;DHT22;6723;48.256;16.402;2022-10-31T03:49:08;12.10;99.90
13310;DHT22;6723;48.256;16.402;2022-10-31T03:54:37;12.10;99.90
13310;DHT22;6723;48.256;16.402;2022-10-31T04:00:07;12.20;99.90
13310;DHT22;6723;48.256;16.402;2022-10-31T04:02:35;12.20;99.90
13310;DHT22;6723;48.256;16.402;2022-10-31T04:05:04;12.20;99.90
13310;DHT22;6723;48.256;16.402;2022-10-31T04:07:36;12.20;99.90
13310;DHT22;6723;48.256;16.402;2022-10-31T04:10:08;12.20;99.90
13310;DHT22;6723;48.256;16.402;2022-10-31T04:12:36;12.20;99.90
13310;DHT22;6723;48.256;16.402;2022-10-31T04:15:05;12.20;99.90
13310;DHT22;6723;48.256;16.402;2022-10-31T04:17:34;12.10;99.90
13310;DHT22;6723;48.256;16.402;2022-10-31T04:20:03;12.10;99.90
13310;DHT22;6723;48.256;16.402;2022-10-31T04:22:29;12.10;99.90
13310;DHT22;6723;48.256;16.402;2022-10-31T04:24:55;12.10;99.90
13310;DHT22;6723;48.256;16.402;2022-10-31T04:27:20;12.10;99.90
13310;DHT22;6723;48.256;16.402;2022-10-31T04:29:46;12.10;99.90
13310;DHT22;6723;48.256;16.402;2022-10-31T04:32:12;12.00;99.90
13310;DHT22;6723;48.256;16.402;2022-10-31T04:34:38;12.00;99.90
13310;DHT22;6723;48.256;16.402;2022-10-31T04:37:03;12.00;99.90
13310;DHT22;6723;48.256;16.402;2022-10-31T04:39:29;12.00;99.90
13310;DHT22;6723;48.256;16.402;2022-10-31T04:41:55;12.00;99.90
13310;DHT22;6723;48.256;16.402;2022-10-31T04:44:21;12.00;99.90
13310;DHT22;6723;48.256;16.402;2022-10-31T04:46:47;12.00;99.90
13310;DHT22;6723;48.256;16.402;2022-10-31T04:49:13;12.00;99.90
13310;DHT22;6723;48.256;16.402;2022-10-31T04:51:39;12.00;99.90
13310;DHT22;6723;48.256;16.402;2022-10-31T04:54:04;12.00;99.90
13310;DHT22;6723;48.256;16.402;2022-10-31T04:56:30;12.10;99.90
13310;DHT22;6723;48.256;16.402;2022-10-31T04:58:56;12.10;99.90
13310;DHT22;6723;48.256;16.402;2022-10-31T05:01:22;12.10;99.90
13310;DHT22;6723;48.256;16.402;2022-10-31T05:03:48;12.00;99.90
13310;DHT22;6723;48.256;16.402;2022-10-31T05:06:13;12.00;99.90
13310;DHT22;6723;48.256;16.402;2022-10-31T05:08:39;12.00;99.90
13310;DHT22;6723;48.256;16.402;2022-10-31T05:11:05;11.90;99.90
13310;DHT22;6723;48.256;16.402;2022-10-31T05:13:31;11.90;99.90
13310;DHT22;6723;48.256;16.402;2022-10-31T05:15:57;11.90;99.90
13310;DHT22;6723;48.256;16.402;2022-10-31T05:18:23;11.80;99.90
13310;DHT22;6723;48.256;16.402;2022-10-31T05:20:49;11.90;99.90
13310;DHT22;6723;48.256;16.402;2022-10-31T05:23:14;11.90;99.90
13310;DHT22;6723;48.256;16.402;2022-10-31T05:25:41;11.80;99.90
13310;DHT22;6723;48.256;16.402;2022-10-31T05:28:07;11.80;99.90
13310;DHT22;6723;48.256;16.402;2022-10-31T05:30:34;11.80;99.90
13310;DHT22;6723;48.256;16.402;2022-10-31T05:33:00;11.80;99.90
13310;DHT22;6723;48.256;16.402;2022-10-31T05:35:31;11.80;99.90
13310;DHT22;6723;48.256;16.402;2022-10-31T05:37:58;11.70;99.90
13310;DHT22;6723;48.256;16.402;2022-10-31T05:40:25;11.70;99.90
13310;DHT22;6723;48.256;16.402;2022-10-31T05:42:52;11.70;99.90
13310;DHT22;6723;48.256;16.402;2022-10-31T05:45:19;11.70;99.90
13310;DHT22;6723;48.256;16.402;2022-10-31T05:47:56;11.70;99.90
13310;DHT22;6723;48.256;16.402;2022-10-31T05:50:23;11.70;99.90
13310;DHT22;6723;48.256;16.402;2022-10-31T05:52:59;11.70;99.90
13310;DHT22;6723;48.256;16.402;2022-10-31T05:55:26;11.70;99.90
13310;DHT22;6723;48.256;16.402;2022-10-31T06:01:02;11.70;99.90
13310;DHT22;6723;48.256;16.402;2022-10-31T06:03:27;11.70;99.90
13310;DHT22;6723;48.256;16.402;2022-10-31T06:05:53;11.70;99.90
13310;DHT22;6723;48.256;16.402;2022-10-31T06:08:19;11.70;99.90
13310;DHT22;6723;48.256;16.402;2022-10-31T06:10:45;11.70;99.90
13310;DHT22;6723;48.256;16.402;2022-10-31T06:13:10;11.70;99.90
13310;DHT22;6723;48.256;16.402;2022-10-31T06:15:36;11.60;99.90
13310;DHT22;6723;48.256;16.402;2022-10-31T06:18:04;11.70;99.90
13310;DHT22;6723;48.256;16.402;2022-10-31T06:20:30;11.60;99.90
13310;DHT22;6723;48.256;16.402;2022-10-31T06:23:18;11.60;99.90
13310;DHT22;6723;48.256;16.402;2022-10-31T06:25:49;11.70;99.90
13310;DHT22;6723;48.256;16.402;2022-10-31T06:28:14;11.70;99.90
13310;DHT22;6723;48.256;16.402;2022-10-31T06:30:40;11.70;99.90
13310;DHT22;6723;48.256;16.402;2022-10-31T06:33:06;11.80;99.90
13310;DHT22;6723;48.256;16.402;2022-10-31T06:35:53;11.80;99.90
13310;DHT22;6723;48.256;16.402;2022-10-31T06:38:19;11.80;99.90
13310;DHT22;6723;48.256;16.402;2022-10-31T06:40:45;11.80;99.90
13310;DHT22;6723;48.256;16.402;2022-10-31T06:43:11;11.90;99.90
13310;DHT22;6723;48.256;16.402;2022-10-31T06:45:38;12.00;99.90
13310;DHT22;6723;48.256;16.402;2022-10-31T06:48:04;12.10;99.90
13310;DHT22;6723;48.256;16.402;2022-10-31T06:50:29;12.00;99.90
13310;DHT22;6723;48.256;16.402;2022-10-31T06:52:57;12.10;99.90
13310;DHT22;6723;48.256;16.402;2022-10-31T06:55:24;12.10;99.90
13310;DHT22;6723;48.256;16.402;2022-10-31T06:57:52;12.10;99.90
13310;DHT22;6723;48.256;16.402;2022-10-31T07:00:19;12.30;99.90
13310;DHT22;6723;48.256;16.402;2022-10-31T07:02:53;12.30;99.90
13310;DHT22;6723;48.256;16.402;2022-10-31T07:05:19;12.30;99.90
13310;DHT22;6723;48.256;16.402;2022-10-31T07:07:45;12.30;99.90
13310;DHT22;6723;48.256;16.402;2022-10-31T07:10:11;12.30;99.90
13310;DHT22;6723;48.256;16.402;2022-10-31T07:12:37;12.40;99.90
13310;DHT22;6723;48.256;16.402;2022-10-31T07:15:03;12.40;99.90
13310;DHT22;6723;48.256;16.402;2022-10-31T07:17:29;12.40;99.90
13310;DHT22;6723;48.256;16.402;2022-10-31T07:19:56;12.40;99.90
13310;DHT22;6723;48.256;16.402;2022-10-31T07:22:22;12.50;99.90
13310;DHT22;6723;48.256;16.402;2022-10-31T07:24:47;12.60;99.90
13310;DHT22;6723;48.256;16.402;2022-10-31T07:27:13;12.60;99.90
13310;DHT22;6723;48.256;16.402;2022-10-31T07:29:39;12.60;99.90
13310;DHT22;6723;48.256;16.402;2022-10-31T07:32:05;12.60;99.90
13310;DHT22;6723;48.256;16.402;2022-10-31T07:34:30;12.50;99.90
13310;DHT22;6723;48.256;16.402;2022-10-31T07:36:56;12.60;99.90
13310;DHT22;6723;48.256;16.402;2022-10-31T07:39:22;12.50;99.90
13310;DHT22;6723;48.256;16.402;2022-10-31T07:41:48;12.50;99.90
13310;DHT22;6723;48.256;16.402;2022-10-31T07:44:14;12.50;99.90
13310;DHT22;6723;48.256;16.402;2022-10-31T07:46:40;12.40;99.90
13310;DHT22;6723;48.256;16.402;2022-10-31T07:49:17;12.40;99.90
13310;DHT22;6723;48.256;16.402;2022-10-31T07:51:48;12.40;99.90
13310;DHT22;6723;48.256;16.402;2022-10-31T07:54:14;12.50;99.90
13310;DHT22;6723;48.256;16.402;2022-10-31T07:56:40;12.60;99.90
13310;DHT22;6723;48.256;16.402;2022-10-31T07:59:06;12.70;99.90
13310;DHT22;6723;48.256;16.402;2022-10-31T08:01:31;12.80;99.90
13310;DHT22;6723;48.256;16.402;2022-10-31T08:03:57;12.90;99.90
13310;DHT22;6723;48.256;16.402;2022-10-31T08:06:23;12.90;99.90
13310;DHT22;6723;48.256;16.402;2022-10-31T08:08:49;12.90;99.90
13310;DHT22;6723;48.256;16.402;2022-10-31T08:11:14;13.00;99.90
13310;DHT22;6723;48.256;16.402;2022-10-31T08:13:41;13.00;99.90
13310;DHT22;6723;48.256;16.402;2022-10-31T08:16:08;13.00;99.90
13310;DHT22;6723;48.256;16.402;2022-10-31T08:18:34;13.00;99.90
13310;DHT22;6723;48.256;16.402;2022-10-31T08:20:59;13.10;99.90
13310;DHT22;6723;48.256;16.402;2022-10-31T08:23:25;13.10;99.90
13310;DHT22;6723;48.256;16.402;2022-10-31T08:25:51;13.00;99.90
13310;DHT22;6723;48.256;16.402;2022-10-31T08:28:17;13.10;99.90
13310;DHT22;6723;48.256;16.402;2022-10-31T08:30:45;13.10;99.90
13310;DHT22;6723;48.256;16.402;2022-10-31T08:33:17;13.20;99.90
13310;DHT22;6723;48.256;16.402;2022-10-31T08:35:44;13.20;99.90
13310;DHT22;6723;48.256;16.402;2022-10-31T08:38:18;13.10;99.90
13310;DHT22;6723;48.256;16.402;2022-10-31T08:40:48;13.10;99.90
13310;DHT22;6723;48.256;16.402;2022-10-31T08:43:16;13.10;99.90
13310;DHT22;6723;48.256;16.402;2022-10-31T08:45:43;13.10;99.90
13310;DHT22;6723;48.256;16.402;2022-10-31T08:48:12;13.10;99.90
13310;DHT22;6723;48.256;16.402;2022-10-31T08:50:38;13.10;99.90
13310;DHT22;6723;48.256;16.402;2022-10-31T08:53:21;13.10;99.90
13310;DHT22;6723;48.256;16.402;2022-10-31T08:55:48;13.10;99.90
13310;DHT22;6723;48.256;16.402;2022-10-31T08:58:22;13.20;99.90
13310;DHT22;6723;48.256;16.402;2022-10-31T09:00:50;13.10;99.90
13310;DHT22;6723;48.256;16.402;2022-10-31T09:03:29;13.10;99.90
13310;DHT22;6723;48.256;16.402;2022-10-31T09:05:58;13.10;99.90
13310;DHT22;6723;48.256;16.402;2022-10-31T09:08:24;13.10;99.90
13310;DHT22;6723;48.256;16.402;2022-10-31T09:10:51;13.10;99.90
13310;DHT22;6723;48.256;16.402;2022-10-31T09:13:19;13.20;99.90
13310;DHT22;6723;48.256;16.402;2022-10-31T09:15:48;13.20;99.90
13310;DHT22;6723;48.256;16.402;2022-10-31T09:18:20;13.20;99.90
13310;DHT22;6723;48.256;16.402;2022-10-31T09:20:48;13.30;99.90
13310;DHT22;6723;48.256;16.402;2022-10-31T09:25:42;13.30;99.90
13310;DHT22;6723;48.256;16.402;2022-10-31T09:28:10;13.30;99.90
13310;DHT22;6723;48.256;16.402;2022-10-31T09:30:37;13.30;99.90
13310;DHT22;6723;48.256;16.402;2022-10-31T09:33:11;13.30;99.90
13310;DHT22;6723;48.256;16.402;2022-10-31T09:35:38;13.30;99.90
13310;DHT22;6723;48.256;16.402;2022-10-31T09:38:10;13.40;99.90
13310;DHT22;6723;48.256;16.402;2022-10-31T09:40:44;13.40;99.90
13310;DHT22;6723;48.256;16.402;2022-10-31T09:49:12;13.40;99.90
13310;DHT22;6723;48.256;16.402;2022-10-31T09:51:53;13.40;99.90
13310;DHT22;6723;48.256;16.402;2022-10-31T09:57:03;13.50;99.90
13310;DHT22;6723;48.256;16.402;2022-10-31T09:59:34;13.50;99.90
13310;DHT22;6723;48.256;16.402;2022-10-31T10:02:22;13.50;99.90
13310;DHT22;6723;48.256;16.402;2022-10-31T10:04:59;13.50;99.90
13310;DHT22;6723;48.256;16.402;2022-10-31T10:08:01;13.50;99.90
13310;DHT22;6723;48.256;16.402;2022-10-31T10:10:50;13.50;99.90
13310;DHT22;6723;48.256;16.402;2022-10-31T10:18:51;13.60;99.90
13310;DHT22;6723;48.256;16.402;2022-10-31T10:21:35;13.60;99.90
13310;DHT22;6723;48.256;16.402;2022-10-31T10:24:33;13.60;99.90
13310;DHT22;6723;48.256;16.402;2022-10-31T10:32:45;13.60;99.90
13310;DHT22;6723;48.256;16.402;2022-10-31T10:35:35;13.60;99.90
13310;DHT22;6723;48.256;16.402;2022-10-31T10:40:45;13.60;99.90
13310;DHT22;6723;48.256;16.402;2022-10-31T10:48:44;13.70;99.90
13310;DHT22;6723;48.256;16.402;2022-10-31T10:51:23;13.80;99.90
13310;DHT22;6723;48.256;16.402;2022-10-31T10:54:02;13.70;99.90
13310;DHT22;6723;48.256;16.402;2022-10-31T10:59:02;13.70;99.90
13310;DHT22;6723;48.256;16.402;2022-10-31T11:01:29;13.60;99.90
13310;DHT22;6723;48.256;16.402;2022-10-31T11:03:55;13.40;99.90
13310;DHT22;6723;48.256;16.402;2022-10-31T11:06:24;13.50;99.90
13310;DHT22;6723;48.256;16.402;2022-10-31T11:08:53;13.60;99.90
13310;DHT22;6723;48.256;16.402;2022-10-31T11:11:23;13.70;99.90
13310;DHT22;6723;48.256;16.402;2022-10-31T11:13:59;13.70;99.90
13310;DHT22;6723;48.256;16.402;2022-10-31T11:16:40;13.70;99.90
13310;DHT22;6723;48.256;16.402;2022-10-31T11:19:17;13.70;99.90
13310;DHT22;6723;48.256;16.402;2022-10-31T11:21:43;13.70;99.90
13310;DHT22;6723;48.256;16.402;2022-10-31T11:24:18;13.60;99.90
13310;DHT22;6723;48.256;16.402;2022-10-31T11:26:47;13.70;99.90
13310;DHT22;6723;48.256;16.402;2022-10-31T11:29:24;13.40;99.90
13310;DHT22;6723;48.256;16.402;2022-10-31T11:31:52;13.40;99.90
13310;DHT22;6723;48.256;16.402;2022-10-31T11:36:48;13.50;99.90
13310;DHT22;6723;48.256;16.402;2022-10-31T11:39:20;13.50;99.90
13310;DHT22;6723;48.256;16.402;2022-10-31T11:41:47;13.50;99.90
13310;DHT22;6723;48.256;16.402;2022-10-31T11:44:20;13.50;99.90
13310;DHT22;6723;48.256;16.402;2022-10-31T11:46:50;13.40;99.90
13310;DHT22;6723;48.256;16.402;2022-10-31T11:49:34;13.40;99.90
13310;DHT22;6723;48.256;16.402;2022-10-31T11:52:08;13.50;99.90
13310;DHT22;6723;48.256;16.402;2022-10-31T12:00:27;13.40;99.90
13310;DHT22;6723;48.256;16.402;2022-10-31T12:03:58;13.50;99.90
13310;DHT22;6723;48.256;16.402;2022-10-31T12:06:03;13.60;99.90
13310;DHT22;6723;48.256;16.402;2022-10-31T12:08:34;13.50;99.90
13310;DHT22;6723;48.256;16.402;2022-10-31T12:14:06;13.60;99.90
13310;DHT22;6723;48.256;16.402;2022-10-31T12:16:46;13.40;99.90
13310;DHT22;6723;48.256;16.402;2022-10-31T12:19:31;13.40;99.90
13310;DHT22;6723;48.256;16.402;2022-10-31T12:24:34;13.40;99.90
13310;DHT22;6723;48.256;16.402;2022-10-31T12:32:38;13.60;99.90
13310;DHT22;6723;48.256;16.402;2022-10-31T12:38:28;13.40;99.90
13310;DHT22;6723;48.256;16.402;2022-10-31T12:43:41;13.40;99.90
13310;DHT22;6723;48.256;16.402;2022-10-31T12:46:33;13.40;99.90
13310;DHT22;6723;48.256;16.402;2022-10-31T12:57:43;13.50;99.90
13310;DHT22;6723;48.256;16.402;2022-10-31T13:00:17;13.40;99.90
13310;DHT22;6723;48.256;16.402;2022-10-31T13:02:47;13.50;99.90
13310;DHT22;6723;48.256;16.402;2022-10-31T13:05:29;13.50;99.90
13310;DHT22;6723;48.256;16.402;2022-10-31T13:08:06;13.50;99.90
13310;DHT22;6723;48.256;16.402;2022-10-31T13:13:35;13.30;99.90
13310;DHT22;6723;48.256;16.402;2022-10-31T13:16:16;13.30;99.90
13310;DHT22;6723;48.256;16.402;2022-10-31T13:24:41;13.00;99.90
13310;DHT22;6723;48.256;16.402;2022-10-31T13:27:37;12.90;99.90
13310;DHT22;6723;48.256;16.402;2022-10-31T13:30:14;13.00;99.90
13310;DHT22;6723;48.256;16.402;2022-10-31T13:38:41;12.90;99.90
13310;DHT22;6723;48.256;16.402;2022-10-31T13:48:57;12.80;99.90
13310;DHT22;6723;48.256;16.402;2022-10-31T13:51:41;12.80;99.90
13310;DHT22;6723;48.256;16.402;2022-10-31T13:55:02;12.90;99.90
13310;DHT22;6723;48.256;16.402;2022-10-31T13:57:37;12.80;99.90
13310;DHT22;6723;48.256;16.402;2022-10-31T14:02:50;12.90;99.90
13310;DHT22;6723;48.256;16.402;2022-10-31T14:05:23;12.90;99.90
13310;DHT22;6723;48.256;16.402;2022-10-31T14:07:54;12.90;99.90
13310;DHT22;6723;48.256;16.402;2022-10-31T14:10:32;12.70;99.90
13310;DHT22;6723;48.256;16.402;2022-10-31T14:13:17;12.80;99.90
13310;DHT22;6723;48.256;16.402;2022-10-31T14:16:34;12.80;99.90
13310;DHT22;6723;48.256;16.402;2022-10-31T14:18:44;12.90;99.90
13310;DHT22;6723;48.256;16.402;2022-10-31T14:23:51;12.80;99.90
13310;DHT22;6723;48.256;16.402;2022-10-31T14:26:31;12.80;99.90
13310;DHT22;6723;48.256;16.402;2022-10-31T14:29:02;12.90;99.90
13310;DHT22;6723;48.256;16.402;2022-10-31T14:31:39;12.90;99.90
13310;DHT22;6723;48.256;16.402;2022-10-31T14:34:34;12.90;99.90
13310;DHT22;6723;48.256;16.402;2022-10-31T14:51:19;12.90;99.90
13310;DHT22;6723;48.256;16.402;2022-10-31T14:53:54;12.80;99.90
13310;DHT22;6723;48.256;16.402;2022-10-31T14:56:24;12.80;99.90
13310;DHT22;6723;48.256;16.402;2022-10-31T14:58:53;12.60;99.90
13310;DHT22;6723;48.256;16.402;2022-10-31T15:01:29;12.70;99.90
13310;DHT22;6723;48.256;16.402;2022-10-31T15:04:05;12.60;99.90
13310;DHT22;6723;48.256;16.402;2022-10-31T15:06:42;12.70;99.90
13310;DHT22;6723;48.256;16.402;2022-10-31T15:09:30;12.80;99.90
13310;DHT22;6723;48.256;16.402;2022-10-31T15:12:16;12.70;99.90
13310;DHT22;6723;48.256;16.402;2022-10-31T15:14:46;12.80;99.90
13310;DHT22;6723;48.256;16.402;2022-10-31T15:17:12;12.80;99.90
13310;DHT22;6723;48.256;16.402;2022-10-31T15:19:40;12.80;99.90
13310;DHT22;6723;48.256;16.402;2022-10-31T15:22:14;12.90;99.90
13310;DHT22;6723;48.256;16.402;2022-10-31T15:24:42;12.80;99.90
13310;DHT22;6723;48.256;16.402;2022-10-31T15:27:16;12.80;99.90
13310;DHT22;6723;48.256;16.402;2022-10-31T15:29:50;12.80;99.90
13310;DHT22;6723;48.256;16.402;2022-10-31T15:32:25;12.90;99.90
13310;DHT22;6723;48.256;16.402;2022-10-31T15:34:53;12.80;99.90
13310;DHT22;6723;48.256;16.402;2022-10-31T15:37:22;12.70;99.90
13310;DHT22;6723;48.256;16.402;2022-10-31T15:39:50;12.70;99.90
13310;DHT22;6723;48.256;16.402;2022-10-31T15:42:30;12.80;99.90
13310;DHT22;6723;48.256;16.402;2022-10-31T15:47:35;12.80;99.90
13310;DHT22;6723;48.256;16.402;2022-10-31T15:50:03;12.70;99.90
13310;DHT22;6723;48.256;16.402;2022-10-31T15:57:30;12.80;99.90
13310;DHT22;6723;48.256;16.402;2022-10-31T15:59:57;12.80;99.90
13310;DHT22;6723;48.256;16.402;2022-10-31T16:02:25;12.80;99.90
13310;DHT22;6723;48.256;16.402;2022-10-31T16:05:00;12.80;99.90
13310;DHT22;6723;48.256;16.402;2022-10-31T16:07:27;12.70;99.90
13310;DHT22;6723;48.256;16.402;2022-10-31T16:09:59;12.70;99.90
13310;DHT22;6723;48.256;16.402;2022-10-31T16:12:42;12.70;99.90
13310;DHT22;6723;48.256;16.402;2022-10-31T16:15:15;12.70;99.90
13310;DHT22;6723;48.256;16.402;2022-10-31T16:17:44;12.60;99.90
13310;DHT22;6723;48.256;16.402;2022-10-31T16:20:23;12.60;99.90
13310;DHT22;6723;48.256;16.402;2022-10-31T16:22:51;12.60;99.90
13310;DHT22;6723;48.256;16.402;2022-10-31T16:25:29;12.60;99.90
13310;DHT22;6723;48.256;16.402;2022-10-31T16:28:02;12.60;99.90
13310;DHT22;6723;48.256;16.402;2022-10-31T16:30:41;12.60;99.90
13310;DHT22;6723;48.256;16.402;2022-10-31T16:35:50;12.50;99.90
13310;DHT22;6723;48.256;16.402;2022-10-31T16:38:48;12.50;99.90
13310;DHT22;6723;48.256;16.402;2022-10-31T16:41:13;12.50;99.90
13310;DHT22;6723;48.256;16.402;2022-10-31T16:43:39;12.50;99.90
13310;DHT22;6723;48.256;16.402;2022-10-31T16:46:05;12.40;99.90
13310;DHT22;6723;48.256;16.402;2022-10-31T16:48:30;12.40;99.90
13310;DHT22;6723;48.256;16.402;2022-10-31T16:50:56;12.40;99.90
13310;DHT22;6723;48.256;16.402;2022-10-31T16:53:22;12.40;99.90
13310;DHT22;6723;48.256;16.402;2022-10-31T16:55:55;12.40;99.90
13310;DHT22;6723;48.256;16.402;2022-10-31T17:01:48;12.40;99.90
13310;DHT22;6723;48.256;16.402;2022-10-31T17:04:15;12.40;99.90
13310;DHT22;6723;48.256;16.402;2022-10-31T17:06:41;12.30;99.90
13310;DHT22;6723;48.256;16.402;2022-10-31T17:09:08;12.30;99.90
13310;DHT22;6723;48.256;16.402;2022-10-31T17:11:39;12.30;99.90
13310;DHT22;6723;48.256;16.402;2022-10-31T17:14:10;12.20;99.90
13310;DHT22;6723;48.256;16.402;2022-10-31T17:16:36;12.10;99.90
13310;DHT22;6723;48.256;16.402;2022-10-31T17:19:13;12.10;99.90
13310;DHT22;6723;48.256;16.402;2022-10-31T17:21:40;12.10;99.90
13310;DHT22;6723;48.256;16.402;2022-10-31T17:24:12;12.10;99.90
13310;DHT22;6723;48.256;16.402;2022-10-31T17:26:39;12.20;99.90
13310;DHT22;6723;48.256;16.402;2022-10-31T17:29:05;12.20;99.90
13310;DHT22;6723;48.256;16.402;2022-10-31T17:31:34;12.10;99.90
13310;DHT22;6723;48.256;16.402;2022-10-31T17:34:01;12.20;99.90
13310;DHT22;6723;48.256;16.402;2022-10-31T17:36:30;12.30;99.90
13310;DHT22;6723;48.256;16.402;2022-10-31T17:38:56;12.30;99.90
13310;DHT22;6723;48.256;16.402;2022-10-31T17:41:23;12.30;99.90
13310;DHT22;6723;48.256;16.402;2022-10-31T17:43:55;12.20;99.90
13310;DHT22;6723;48.256;16.402;2022-10-31T17:46:22;12.20;99.90
13310;DHT22;6723;48.256;16.402;2022-10-31T17:48:47;12.10;99.90
13310;DHT22;6723;48.256;16.402;2022-10-31T17:51:13;12.20;99.90
13310;DHT22;6723;48.256;16.402;2022-10-31T17:53:39;12.20;99.90
13310;DHT22;6723;48.256;16.402;2022-10-31T17:56:07;12.10;99.90
13310;DHT22;6723;48.256;16.402;2022-10-31T17:58:35;12.10;99.90
13310;DHT22;6723;48.256;16.402;2022-10-31T18:01:06;12.10;99.90
13310;DHT22;6723;48.256;16.402;2022-10-31T18:03:32;12.10;99.90
13310;DHT22;6723;48.256;16.402;2022-10-31T18:05:59;12.00;99.90
13310;DHT22;6723;48.256;16.402;2022-10-31T18:08:26;12.10;99.90
13310;DHT22;6723;48.256;16.402;2022-10-31T18:10:52;12.00;99.90
13310;DHT22;6723;48.256;16.402;2022-10-31T18:13:18;11.90;99.90
13310;DHT22;6723;48.256;16.402;2022-10-31T18:15:44;12.00;99.90
13310;DHT22;6723;48.256;16.402;2022-10-31T18:21:03;11.90;99.90
13310;DHT22;6723;48.256;16.402;2022-10-31T18:23:29;11.90;99.90
13310;DHT22;6723;48.256;16.402;2022-10-31T18:25:55;12.00;99.90
13310;DHT22;6723;48.256;16.402;2022-10-31T18:28:21;12.00;99.90